Time;durP1;ratioP1;P1;durP2;ratioP2;P2;SDS_P1;SDS_P2;PMS_P1;PMS_P2;Temp;Humidity;BMP_temperature;BMP_pressure;BME280_temperature;BME280_humidity;BME280_pressure;Samples;Min_cycle;Max_cycle;Signal;HPM_P1;HPM_P2
2024/01/26 00:01:50;;;;;;;116.85;27.45;;;8.00;1.00;;;;;;5023969;28;20037;-67
2024/01/26 00:04:15;;;;;;;109.38;27.73;;;8.00;1.00;;;;;;5023343;28;20068;-69
2024/01/26 00:06:41;;;;;;;111.90;27.77;;;8.10;1.00;;;;;;5043156;28;20045;-69
2024/01/26 00:09:11;;;;;;;126.18;29.63;;;8.20;1.00;;;;;;5030445;28;20089;-68
2024/01/26 00:11:38;;;;;;;121.57;27.90;;;8.20;1.00;;;;;;5040382;28;20066;-68
2024/01/26 00:14:04;;;;;;;127.63;31.85;;;8.20;1.00;;;;;;5015999;28;20041;-68
2024/01/26 00:16:30;;;;;;;111.43;28.85;;;8.20;1.00;;;;;;5024675;28;20057;-68
2024/01/26 00:18:56;;;;;;;112.80;28.08;;;8.20;1.00;;;;;;5035349;28;20072;-69
2024/01/26 00:21:21;;;;;;;111.30;30.15;;;8.20;1.00;;;;;;5015483;28;20041;-69
2024/01/26 00:23:47;;;;;;;114.28;30.10;;;8.30;1.00;;;;;;5031199;28;20040;-68
2024/01/26 00:26:13;;;;;;;129.60;30.63;;;8.40;1.00;;;;;;5031794;28;20469;-68
2024/01/26 00:28:39;;;;;;;129.57;31.20;;;8.40;1.00;;;;;;5026662;28;20045;-69
2024/01/26 00:31:05;;;;;;;133.63;32.10;;;8.30;1.00;;;;;;5018464;28;20053;-69
2024/01/26 00:33:31;;;;;;;121.32;31.27;;;8.30;1.00;;;;;;5031846;28;20125;-68
2024/01/26 00:35:56;;;;;;;130.13;32.65;;;8.30;1.00;;;;;;5033881;28;20095;-68
2024/01/26 00:38:22;;;;;;;139.43;32.85;;;8.40;3.80;;;;;;5046630;28;20424;-69
2024/01/26 00:40:48;;;;;;;127.22;31.02;;;8.40;8.80;;;;;;5043100;28;20049;-69
2024/01/26 00:43:13;;;;;;;162.93;34.35;;;8.30;15.70;;;;;;5047374;28;20040;-68
2024/01/26 00:45:39;;;;;;;133.48;31.77;;;8.40;22.30;;;;;;5027799;28;20048;-68
2024/01/26 00:48:05;;;;;;;118.97;33.35;;;8.40;23.00;;;;;;5016197;28;20041;-67
2024/01/26 00:50:31;;;;;;;132.85;32.47;;;8.40;21.80;;;;;;5031825;28;20048;-69
2024/01/26 00:52:57;;;;;;;132.32;32.45;;;8.40;24.10;;;;;;5037115;28;20037;-68
2024/01/26 00:55:23;;;;;;;137.25;32.83;;;8.40;21.00;;;;;;5026178;28;20477;-68
2024/01/26 00:57:49;;;;;;;142.52;33.80;;;8.30;27.80;;;;;;5029967;28;20444;-68
2024/01/26 01:00:15;;;;;;;125.30;32.33;;;8.30;31.40;;;;;;5030100;28;20099;-68
2024/01/26 01:02:40;;;;;;;116.53;31.00;;;8.40;27.30;;;;;;5029106;28;20037;-68
2024/01/26 01:05:06;;;;;;;127.10;33.58;;;8.50;29.00;;;;;;5031667;28;20051;-68
2024/01/26 01:07:32;;;;;;;126.38;31.40;;;8.40;30.00;;;;;;5033848;28;20155;-68
2024/01/26 01:09:58;;;;;;;128.20;33.90;;;8.40;36.90;;;;;;5035956;28;20460;-68
2024/01/26 01:12:23;;;;;;;130.93;31.55;;;8.40;39.80;;;;;;5038807;28;20036;-68
2024/01/26 01:14:49;;;;;;;130.13;30.42;;;8.50;40.00;;;;;;5040393;28;20374;-68
2024/01/26 01:17:15;;;;;;;112.90;29.10;;;8.40;43.50;;;;;;5033537;28;20033;-68
2024/01/26 01:19:41;;;;;;;114.13;30.67;;;8.50;44.00;;;;;;5017214;28;20140;-66
2024/01/26 01:22:07;;;;;;;112.55;28.67;;;8.40;40.20;;;;;;5013755;28;20488;-68
2024/01/26 01:24:32;;;;;;;107.60;28.65;;;8.50;39.30;;;;;;5034343;28;20060;-68
2024/01/26 01:26:58;;;;;;;120.68;29.77;;;8.40;45.50;;;;;;5029016;28;20175;-68
2024/01/26 01:29:23;;;;;;;113.05;28.42;;;8.50;50.50;;;;;;5011661;28;20550;-68
2024/01/26 01:31:49;;;;;;;124.15;30.38;;;8.60;52.50;;;;;;5032657;28;20057;-68
2024/01/26 01:34:15;;;;;;;96.97;28.45;;;8.50;55.80;;;;;;5040781;28;20033;-68
2024/01/26 01:36:40;;;;;;;107.07;29.17;;;8.50;56.60;;;;;;5032372;28;20087;-68
2024/01/26 01:39:07;;;;;;;119.85;30.45;;;8.60;56.60;;;;;;5036309;28;20068;-68
2024/01/26 01:41:33;;;;;;;114.15;28.67;;;8.60;61.90;;;;;;5035479;28;20089;-68
2024/01/26 01:43:59;;;;;;;100.68;29.40;;;8.50;60.60;;;;;;5032589;28;20033;-68
2024/01/26 01:46:25;;;;;;;109.40;30.25;;;8.50;63.50;;;;;;5030538;28;20037;-67
2024/01/26 01:48:51;;;;;;;107.97;29.75;;;8.50;66.10;;;;;;5029379;28;20034;-69
2024/01/26 01:51:17;;;;;;;106.22;29.85;;;8.50;70.20;;;;;;5014814;28;20052;-68
2024/01/26 01:53:43;;;;;;;106.70;30.40;;;8.50;67.60;;;;;;5029470;28;20049;-68
2024/01/26 01:56:11;;;;;;;113.57;29.65;;;8.70;65.70;;;;;;5023540;28;20056;-68
2024/01/26 01:58:39;;;;;;;123.13;31.33;;;8.60;66.20;;;;;;5034441;28;20033;-67
2024/01/26 02:01:05;;;;;;;96.20;28.08;;;8.80;65.40;;;;;;5012961;28;20171;-69
2024/01/26 02:03:30;;;;;;;96.80;28.23;;;8.80;69.50;;;;;;5036532;28;20455;-67
2024/01/26 02:05:56;;;;;;;110.35;29.40;;;8.70;71.00;;;;;;5041929;28;20041;-68
2024/01/26 02:08:22;;;;;;;100.13;28.58;;;8.80;76.20;;;;;;5029989;28;20052;-67
2024/01/26 02:10:48;;;;;;;103.68;28.83;;;8.80;87.30;;;;;;5039535;28;20815;-68
2024/01/26 02:13:13;;;;;;;97.03;28.85;;;8.80;91.80;;;;;;5029753;28;20065;-67
2024/01/26 02:15:39;;;;;;;90.18;26.95;;;8.70;91.80;;;;;;5040389;28;20041;-68
2024/01/26 02:18:05;;;;;;;86.93;26.92;;;8.80;92.30;;;;;;5048416;28;20036;-68
2024/01/26 02:20:31;;;;;;;86.40;27.33;;;8.80;92.20;;;;;;5047703;28;20064;-68
2024/01/26 02:22:57;;;;;;;82.97;26.85;;;8.70;91.30;;;;;;5036215;28;20034;-69
2024/01/26 02:25:23;;;;;;;88.70;25.95;;;8.70;93.90;;;;;;5031695;28;20036;-67
2024/01/26 02:27:52;;;;;;;75.72;25.45;;;8.80;94.40;;;;;;5036166;28;20026;-69
2024/01/26 02:30:17;;;;;;;75.75;24.83;;;8.80;93.80;;;;;;5030692;28;20060;-67
2024/01/26 02:32:43;;;;;;;66.20;24.27;;;8.80;95.50;;;;;;5029307;28;20360;-68
2024/01/26 02:35:09;;;;;;;63.00;22.73;;;8.90;98.50;;;;;;5037361;28;20084;-69
2024/01/26 02:37:35;;;;;;;73.22;23.38;;;8.90;99.90;;;;;;5031380;28;20034;-68
2024/01/26 02:40:01;;;;;;;70.25;24.15;;;9.00;98.60;;;;;;5039361;28;20412;-68
2024/01/26 02:42:26;;;;;;;76.93;24.02;;;8.90;96.00;;;;;;5017230;28;20041;-68
2024/01/26 02:44:52;;;;;;;61.55;22.85;;;8.80;99.40;;;;;;5040048;28;20041;-68
2024/01/26 02:47:17;;;;;;;72.97;23.27;;;9.00;99.90;;;;;;5038376;28;20125;-68
2024/01/26 02:49:43;;;;;;;61.10;22.75;;;9.00;78.30;;;;;;5054255;28;20049;-68
2024/01/26 02:52:09;;;;;;;58.88;22.58;;;8.90;71.30;;;;;;5040441;28;20483;-68
2024/01/26 02:54:35;;;;;;;53.20;20.70;;;8.90;67.00;;;;;;5048246;28;20099;-68
2024/01/26 02:57:00;;;;;;;50.88;20.90;;;9.00;63.20;;;;;;5039501;28;20041;-68
2024/01/26 02:59:26;;;;;;;49.40;20.02;;;9.00;30.00;;;;;;5016235;28;20045;-69
2024/01/26 03:01:52;;;;;;;52.67;21.45;;;9.00;1.00;;;;;;5035435;28;20129;-68
2024/01/26 03:04:21;;;;;;;55.63;21.30;;;9.00;1.00;;;;;;5029022;28;20041;-68
2024/01/26 03:06:47;;;;;;;43.95;18.33;;;9.00;1.00;;;;;;5024993;28;20369;-69
2024/01/26 03:09:12;;;;;;;49.40;19.27;;;9.00;1.00;;;;;;5051048;28;20378;-67
2024/01/26 03:11:39;;;;;;;43.78;17.75;;;8.90;1.00;;;;;;5044973;28;20030;-67
2024/01/26 03:14:06;;;;;;;54.08;19.10;;;9.00;1.00;;;;;;5043506;28;20041;-68
2024/01/26 03:16:33;;;;;;;43.05;18.30;;;9.00;1.00;;;;;;5038885;28;20033;-68
2024/01/26 03:18:58;;;;;;;46.05;17.40;;;9.00;1.00;;;;;;5033729;28;20514;-67
2024/01/26 03:21:24;;;;;;;42.65;18.48;;;9.00;1.00;;;;;;5038635;28;20108;-67
2024/01/26 03:23:49;;;;;;;40.85;17.60;;;9.00;1.00;;;;;;5040214;28;20029;-69
2024/01/26 03:26:15;;;;;;;41.97;18.20;;;9.10;1.00;;;;;;5041867;28;20111;-68
2024/01/26 03:28:41;;;;;;;40.75;18.65;;;9.10;1.00;;;;;;5039426;28;20057;-68
2024/01/26 03:31:06;;;;;;;38.30;17.05;;;9.10;1.00;;;;;;5033254;28;20572;-68
2024/01/26 03:33:32;;;;;;;42.83;17.33;;;9.10;1.00;;;;;;5048448;28;20094;-69
2024/01/26 03:35:57;;;;;;;39.58;16.48;;;9.00;1.00;;;;;;5031809;28;20068;-67
2024/01/26 03:38:23;;;;;;;43.13;18.60;;;9.10;1.00;;;;;;5045653;28;20041;-68
2024/01/26 03:40:49;;;;;;;38.92;16.42;;;9.00;1.00;;;;;;5036526;28;20516;-66
2024/01/26 03:43:14;;;;;;;44.17;16.90;;;9.10;1.00;;;;;;5051307;28;20082;-67
2024/01/26 03:45:40;;;;;;;43.75;18.60;;;9.10;1.00;;;;;;5037339;28;20034;-69
2024/01/26 03:48:06;;;;;;;39.28;18.00;;;9.10;1.00;;;;;;5035049;28;20032;-69
2024/01/26 03:50:32;;;;;;;43.38;18.00;;;9.10;1.00;;;;;;5050740;28;20045;-68
2024/01/26 03:52:57;;;;;;;40.72;18.15;;;9.10;1.00;;;;;;5041077;28;20044;-67
2024/01/26 03:55:23;;;;;;;43.53;17.88;;;9.10;1.00;;;;;;5043344;28;20477;-68
2024/01/26 03:57:48;;;;;;;42.17;18.65;;;9.00;1.00;;;;;;5021153;28;20045;-71
2024/01/26 04:00:15;;;;;;;41.58;18.30;;;9.10;1.00;;;;;;5049844;28;20364;-68
2024/01/26 04:02:40;;;;;;;43.53;17.85;;;9.10;1.00;;;;;;5034080;28;20379;-68
2024/01/26 04:05:06;;;;;;;43.65;18.10;;;9.10;1.00;;;;;;5039845;28;20040;-67
2024/01/26 04:07:32;;;;;;;42.13;17.00;;;9.20;1.00;;;;;;5032260;28;20072;-68
2024/01/26 04:09:58;;;;;;;41.90;16.98;;;9.10;1.00;;;;;;5038948;28;20140;-68
2024/01/26 04:12:24;;;;;;;45.72;17.80;;;9.20;1.00;;;;;;5035066;28;20124;-69
2024/01/26 04:14:49;;;;;;;44.42;18.25;;;9.20;1.00;;;;;;5045360;28;20373;-68
2024/01/26 04:17:15;;;;;;;43.53;17.88;;;9.10;1.00;;;;;;5040388;28;20056;-69
2024/01/26 04:19:41;;;;;;;46.67;19.40;;;9.20;1.00;;;;;;5041215;28;20036;-68
2024/01/26 04:22:06;;;;;;;42.42;18.70;;;9.20;1.00;;;;;;5043117;28;20461;-69
2024/01/26 04:24:34;;;;;;;40.35;18.23;;;9.20;1.00;;;;;;5037933;28;20041;-67
2024/01/26 04:27:00;;;;;;;44.10;18.17;;;9.20;1.00;;;;;;5033048;28;20040;-67
2024/01/26 04:29:26;;;;;;;38.50;16.75;;;9.20;1.00;;;;;;5035404;28;20124;-67
2024/01/26 04:31:52;;;;;;;43.92;18.17;;;9.30;1.00;;;;;;5041836;28;20080;-68
2024/01/26 04:34:17;;;;;;;44.95;17.85;;;9.20;1.00;;;;;;5044158;28;20042;-67
2024/01/26 04:36:47;;;;;;;43.85;17.73;;;9.30;1.00;;;;;;5023803;28;20030;-69
2024/01/26 04:39:13;;;;;;;41.17;17.73;;;9.30;1.00;;;;;;5034036;28;20492;-68
2024/01/26 04:41:43;;;;;;;38.97;18.10;;;9.30;1.00;;;;;;5037606;28;20064;-69
2024/01/26 04:44:09;;;;;;;44.25;18.30;;;9.40;1.00;;;;;;5045621;28;20045;-69
2024/01/26 04:46:36;;;;;;;42.58;18.00;;;9.30;1.00;;;;;;5031521;28;20124;-67
2024/01/26 04:49:02;;;;;;;41.33;17.83;;;9.40;1.00;;;;;;5014901;28;20489;-70
2024/01/26 04:51:27;;;;;;;43.03;19.20;;;9.40;1.00;;;;;;5034293;28;20041;-69
2024/01/26 04:53:53;;;;;;;44.28;18.40;;;9.40;1.00;;;;;;5036128;28;20029;-69
2024/01/26 04:56:20;;;;;;;39.22;17.67;;;9.40;1.00;;;;;;5049258;28;20459;-68
2024/01/26 04:58:46;;;;;;;40.38;17.23;;;9.40;1.00;;;;;;5049416;28;20044;-67
2024/01/26 05:01:11;;;;;;;39.35;17.73;;;9.40;1.00;;;;;;5039351;28;20123;-69
2024/01/26 05:03:37;;;;;;;41.92;17.35;;;9.40;1.00;;;;;;5047500;28;20123;-67
2024/01/26 05:06:04;;;;;;;45.03;18.48;;;9.50;1.00;;;;;;5046949;28;20349;-69
2024/01/26 05:08:29;;;;;;;40.45;18.05;;;9.50;1.00;;;;;;5049857;28;20090;-68
2024/01/26 05:10:55;;;;;;;41.58;18.77;;;9.60;1.00;;;;;;5032330;28;20406;-71
2024/01/26 05:13:20;;;;;;;43.00;19.40;;;9.50;1.00;;;;;;5037485;28;20037;-68
2024/01/26 05:15:46;;;;;;;46.55;20.05;;;9.50;1.00;;;;;;5031316;28;20474;-67
2024/01/26 05:18:12;;;;;;;39.38;18.00;;;9.60;1.00;;;;;;5040228;28;20367;-70
2024/01/26 05:20:37;;;;;;;43.50;17.92;;;9.60;1.00;;;;;;5033723;28;20050;-69
2024/01/26 05:23:04;;;;;;;43.95;19.48;;;9.70;1.00;;;;;;5034548;28;20116;-70
2024/01/26 05:25:30;;;;;;;41.88;19.35;;;9.60;1.00;;;;;;5037116;28;20607;-69
2024/01/26 05:27:55;;;;;;;43.47;19.70;;;9.60;1.00;;;;;;5049307;28;20127;-69
2024/01/26 05:30:21;;;;;;;44.53;19.88;;;9.60;1.00;;;;;;5041671;28;20049;-67
2024/01/26 05:32:47;;;;;;;46.85;19.83;;;9.70;1.00;;;;;;5038523;28;20040;-69
2024/01/26 05:35:12;;;;;;;48.55;19.60;;;9.70;1.00;;;;;;5031542;28;20041;-68
2024/01/26 05:37:38;;;;;;;43.50;21.17;;;9.70;1.00;;;;;;5036546;28;20512;-69
2024/01/26 05:40:08;;;;;;;41.05;19.00;;;9.70;1.00;;;;;;5030650;28;20095;-68
2024/01/26 05:42:33;;;;;;;47.67;20.67;;;9.70;1.00;;;;;;5039001;28;20116;-69
2024/01/26 05:45:00;;;;;;;44.83;19.65;;;9.70;1.00;;;;;;5043026;28;20128;-67
2024/01/26 05:47:25;;;;;;;42.08;19.05;;;9.70;1.00;;;;;;5041095;28;20522;-67
2024/01/26 05:49:51;;;;;;;44.03;18.67;;;9.70;1.00;;;;;;5037736;28;20133;-68
2024/01/26 05:52:17;;;;;;;43.80;20.90;;;9.80;1.00;;;;;;5034331;28;20036;-69
2024/01/26 05:54:42;;;;;;;43.50;19.85;;;9.90;1.00;;;;;;5042216;28;20645;-67
2024/01/26 05:57:08;;;;;;;44.33;19.42;;;9.80;1.00;;;;;;5036370;28;20083;-68
2024/01/26 05:59:37;;;;;;;41.88;18.20;;;9.80;1.00;;;;;;5026430;28;20374;-69
2024/01/26 06:02:03;;;;;;;40.47;19.38;;;9.80;1.00;;;;;;5032757;28;20478;-67
2024/01/26 06:04:29;;;;;;;37.13;18.63;;;9.80;1.00;;;;;;5030066;28;20401;-71
2024/01/26 06:06:55;;;;;;;35.97;16.52;;;9.80;1.00;;;;;;5034887;28;20052;-68
2024/01/26 06:09:20;;;;;;;39.22;17.55;;;9.90;1.00;;;;;;5041270;28;20037;-67
2024/01/26 06:11:46;;;;;;;41.05;18.27;;;10.00;1.00;;;;;;5031771;28;20077;-69
2024/01/26 06:14:12;;;;;;;37.67;17.25;;;10.00;99.90;;;;;;5046809;28;20059;-69
2024/01/26 06:16:37;;;;;;;36.60;17.60;;;10.00;99.90;;;;;;5037879;28;20083;-69
2024/01/26 06:19:03;;;;;;;33.47;16.75;;;10.00;99.90;;;;;;5039512;28;20530;-68
2024/01/26 06:21:28;;;;;;;34.13;16.52;;;10.00;99.90;;;;;;5024675;28;20025;-69
2024/01/26 06:23:54;;;;;;;39.20;16.83;;;10.00;99.90;;;;;;5045554;28;20033;-67
2024/01/26 06:26:20;;;;;;;32.95;17.20;;;9.90;99.90;;;;;;5040211;28;20191;-68
2024/01/26 06:28:47;;;;;;;37.03;16.77;;;9.90;1.00;;;;;;5036813;28;20123;-69
2024/01/26 06:31:12;;;;;;;35.85;17.00;;;9.80;1.00;;;;;;5053351;28;20462;-68
2024/01/26 06:33:38;;;;;;;40.85;17.10;;;9.90;1.00;;;;;;5039461;28;20072;-69
2024/01/26 06:36:04;;;;;;;36.83;16.70;;;9.90;1.00;;;;;;5038335;28;20501;-68
2024/01/26 06:38:30;;;;;;;37.42;16.80;;;10.00;1.00;;;;;;5029945;28;20029;-69
2024/01/26 06:40:57;;;;;;;34.22;16.08;;;9.90;1.00;;;;;;5031497;28;20531;-68
2024/01/26 06:43:23;;;;;;;39.47;15.93;;;9.90;1.00;;;;;;5038452;28;20037;-68
2024/01/26 06:45:48;;;;;;;36.08;15.00;;;9.90;1.00;;;;;;5046792;28;20056;-68
2024/01/26 06:48:14;;;;;;;37.10;15.02;;;9.90;3.50;;;;;;5048544;28;20045;-69
2024/01/26 06:50:40;;;;;;;41.85;15.57;;;9.90;6.70;;;;;;5039126;28;20036;-66
2024/01/26 06:53:05;;;;;;;35.65;15.10;;;9.90;20.60;;;;;;5050108;28;20148;-67
2024/01/26 06:55:31;;;;;;;39.45;15.38;;;9.90;62.30;;;;;;5046221;28;20503;-68
2024/01/26 06:57:56;;;;;;;44.75;15.85;;;9.80;84.90;;;;;;5046376;28;20045;-68
2024/01/26 07:00:22;;;;;;;36.45;14.85;;;9.80;90.40;;;;;;5047684;28;20094;-68
2024/01/26 07:02:48;;;;;;;33.90;14.15;;;9.70;90.90;;;;;;5043883;28;20041;-67
2024/01/26 07:05:13;;;;;;;37.60;13.85;;;9.80;99.90;;;;;;5043565;28;20405;-67
2024/01/26 07:07:39;;;;;;;34.95;14.32;;;9.80;99.90;;;;;;5051542;28;20621;-69
2024/01/26 07:10:05;;;;;;;29.02;12.65;;;9.80;99.90;;;;;;5035254;28;20037;-67
2024/01/26 07:12:31;;;;;;;41.70;14.15;;;10.20;99.90;;;;;;5047413;28;20071;-67
2024/01/26 07:14:56;;;;;;;39.55;13.10;;;9.90;99.90;;;;;;5046033;28;20033;-69
2024/01/26 07:17:22;;;;;;;40.42;13.73;;;10.10;99.90;;;;;;5044915;28;20052;-70
2024/01/26 07:19:48;;;;;;;31.40;13.52;;;9.80;99.90;;;;;;5040887;28;20834;-69
2024/01/26 07:22:13;;;;;;;31.17;12.18;;;10.10;99.90;;;;;;5046646;28;20052;-72
2024/01/26 07:24:39;;;;;;;31.13;11.75;;;10.10;99.90;;;;;;5043530;28;20466;-69
2024/01/26 07:27:05;;;;;;;30.05;12.60;;;10.10;1.00;;;;;;5050434;28;20643;-69
2024/01/26 07:29:32;;;;;;;30.95;12.55;;;10.00;33.40;;;;;;5041117;28;20049;-69
2024/01/26 07:31:57;;;;;;;32.65;13.15;;;10.20;86.20;;;;;;5048015;28;20048;-68
2024/01/26 07:34:23;;;;;;;28.90;11.38;;;10.10;99.90;;;;;;5044787;28;20091;-68
2024/01/26 07:36:49;;;;;;;27.40;11.52;;;10.10;99.90;;;;;;5048424;28;20043;-70
2024/01/26 07:39:15;;;;;;;24.55;10.68;;;10.40;99.90;;;;;;5043851;28;20036;-71
2024/01/26 07:41:41;;;;;;;30.70;11.80;;;9.90;99.90;;;;;;5029363;28;20499;-70
2024/01/26 07:44:06;;;;;;;27.98;10.95;;;10.30;99.90;;;;;;5042786;28;20029;-70
2024/01/26 07:46:32;;;;;;;28.15;11.20;;;10.00;99.90;;;;;;5047393;28;20041;-69
2024/01/26 07:49:00;;;;;;;22.85;10.52;;;10.00;99.90;;;;;;5047400;28;20124;-70
2024/01/26 07:51:26;;;;;;;24.45;10.30;;;10.00;99.90;;;;;;5036702;28;20069;-69
2024/01/26 07:53:52;;;;;;;21.38;9.27;;;9.90;99.90;;;;;;5045804;28;20045;-71
2024/01/26 07:56:17;;;;;;;25.38;9.75;;;10.20;99.90;;;;;;5043862;28;20048;-70
2024/01/26 07:58:43;;;;;;;19.17;9.30;;;10.00;99.90;;;;;;5037275;28;20072;-75
2024/01/26 08:01:11;;;;;;;26.80;9.38;;;10.10;99.90;;;;;;5045014;28;20120;-71
2024/01/26 08:03:37;;;;;;;20.42;8.23;;;10.00;99.90;;;;;;5042111;28;20030;-70
2024/01/26 08:06:02;;;;;;;21.55;8.85;;;10.20;99.90;;;;;;5040825;28;20143;-69
2024/01/26 08:08:28;;;;;;;20.33;8.38;;;10.10;99.90;;;;;;5051609;28;20052;-72
2024/01/26 08:10:54;;;;;;;18.10;7.80;;;10.20;99.90;;;;;;5047293;28;20037;-69
2024/01/26 08:13:19;;;;;;;21.27;8.23;;;10.30;99.90;;;;;;5048421;28;20032;-67
2024/01/26 08:15:46;;;;;;;17.00;7.43;;;10.00;99.90;;;;;;5047041;28;20489;-76
2024/01/26 08:18:11;;;;;;;16.50;7.45;;;10.30;99.90;;;;;;5046516;28;20558;-74
2024/01/26 08:20:37;;;;;;;22.73;8.57;;;10.30;99.90;;;;;;5048566;28;20049;-72
2024/01/26 08:23:03;;;;;;;11.95;6.30;;;10.20;99.90;;;;;;5033217;28;20079;-74
2024/01/26 08:25:29;;;;;;;12.20;6.13;;;10.20;99.90;;;;;;5051451;28;20491;-72
2024/01/26 08:27:55;;;;;;;14.65;6.68;;;10.10;99.90;;;;;;5047783;28;20053;-72
2024/01/26 08:30:23;;;;;;;16.02;7.05;;;10.30;99.90;;;;;;5047983;28;20080;-75
2024/01/26 08:32:50;;;;;;;16.83;6.70;;;10.40;99.90;;;;;;5048299;28;20497;-72
2024/01/26 08:35:16;;;;;;;11.48;5.43;;;10.00;99.90;;;;;;5031196;28;20040;-73
2024/01/26 08:37:42;;;;;;;14.95;5.75;;;10.10;99.90;;;;;;5048091;28;20071;-70
2024/01/26 08:40:09;;;;;;;13.15;5.53;;;10.40;99.90;;;;;;5045512;28;20056;-70
2024/01/26 08:42:35;;;;;;;12.75;5.65;;;10.50;99.90;;;;;;5050142;28;20072;-75
2024/01/26 08:45:01;;;;;;;10.18;5.15;;;10.40;99.90;;;;;;5033160;28;20036;-71
2024/01/26 08:47:27;;;;;;;15.25;5.93;;;10.40;99.90;;;;;;5032445;28;20076;-72
2024/01/26 08:49:52;;;;;;;16.73;5.88;;;10.60;99.90;;;;;;5047521;28;20523;-71
2024/01/26 08:52:18;;;;;;;13.43;6.25;;;10.70;99.90;;;;;;5030280;28;20485;-70
2024/01/26 08:54:43;;;;;;;13.85;6.10;;;10.70;99.90;;;;;;5040301;28;20081;-73
2024/01/26 08:57:10;;;;;;;12.18;5.97;;;10.50;99.90;;;;;;5044012;28;20116;-72
2024/01/26 08:59:36;;;;;;;15.95;7.20;;;10.40;99.90;;;;;;5040692;28;20032;-73
2024/01/26 09:02:02;;;;;;;17.30;7.57;;;10.40;99.90;;;;;;5049352;28;20505;-71
2024/01/26 09:04:28;;;;;;;18.52;7.82;;;10.30;99.90;;;;;;5049673;28;20069;-71
2024/01/26 09:06:54;;;;;;;17.15;7.85;;;10.40;99.90;;;;;;5044180;28;20080;-72
2024/01/26 09:09:20;;;;;;;20.38;8.60;;;10.30;99.90;;;;;;5048836;28;20373;-72
2024/01/26 09:11:45;;;;;;;20.38;8.77;;;10.50;99.90;;;;;;5046748;28;20041;-71
2024/01/26 09:14:11;;;;;;;19.10;9.05;;;10.40;99.90;;;;;;5030864;28;20044;-68
2024/01/26 09:16:36;;;;;;;22.85;9.77;;;10.60;99.90;;;;;;5049827;28;20075;-68
2024/01/26 09:19:02;;;;;;;21.23;10.23;;;10.30;99.90;;;;;;5047976;28;20036;-72
2024/01/26 09:21:28;;;;;;;23.48;9.82;;;10.60;99.90;;;;;;5047820;28;20041;-71
2024/01/26 09:23:53;;;;;;;22.92;9.50;;;10.40;99.90;;;;;;5049759;28;20182;-71
2024/01/26 09:26:21;;;;;;;19.58;9.10;;;10.70;99.90;;;;;;5023974;28;20048;-69
2024/01/26 09:28:47;;;;;;;26.55;10.45;;;10.40;99.90;;;;;;5035398;28;20611;-68
2024/01/26 09:31:13;;;;;;;18.17;9.65;;;10.30;99.90;;;;;;5041618;28;20057;-72
2024/01/26 09:33:38;;;;;;;21.08;8.80;;;10.40;99.90;;;;;;5049124;28;20524;-69
2024/01/26 09:36:05;;;;;;;17.70;8.32;;;10.60;99.90;;;;;;5049841;28;20531;-71
2024/01/26 09:38:31;;;;;;;16.35;6.07;;;10.50;99.90;;;;;;5047001;28;20076;-74
2024/01/26 09:40:56;;;;;;;12.98;4.07;;;10.00;99.90;;;;;;5045109;28;20405;-69
2024/01/26 09:43:23;;;;;;;8.15;2.05;;;10.20;99.90;;;;;;5048310;28;20037;-71
2024/01/26 09:45:53;;;;;;;3.45;1.30;;;9.60;99.90;;;;;;5045282;28;20041;-68
2024/01/26 09:48:20;;;;;;;2.40;0.98;;;9.20;99.90;;;;;;5032423;28;20036;-68
2024/01/26 09:50:51;;;;;;;2.88;0.80;;;9.40;99.90;;;;;;5034433;28;20091;-69
2024/01/26 09:53:17;;;;;;;6.97;1.83;;;9.20;99.90;;;;;;5040680;28;20040;-67
2024/01/26 09:55:45;;;;;;;2.80;0.40;;;9.10;99.90;;;;;;5027322;28;20651;-67
2024/01/26 09:58:11;;;;;;;4.47;0.68;;;8.70;99.90;;;;;;5040303;28;20554;-68
2024/01/26 10:00:36;;;;;;;2.30;0.80;;;8.40;99.90;;;;;;5031035;28;20103;-67
2024/01/26 10:03:02;;;;;;;2.60;0.77;;;8.50;99.90;;;;;;5044585;28;20045;-68
2024/01/26 10:05:28;;;;;;;3.03;0.70;;;8.60;99.90;;;;;;5049608;28;20041;-69
2024/01/26 10:07:54;;;;;;;4.00;1.00;;;8.40;99.90;;;;;;5035810;28;20464;-71
2024/01/26 10:10:20;;;;;;;9.00;1.00;;;8.40;99.90;;;;;;5016977;28;20045;-67
2024/01/26 10:12:45;;;;;;;9.48;1.52;;;8.70;99.90;;;;;;5044281;28;20122;-67
2024/01/26 10:15:11;;;;;;;5.82;1.02;;;8.50;99.90;;;;;;5044823;28;20040;-69
2024/01/26 10:17:38;;;;;;;8.65;1.80;;;8.50;99.90;;;;;;5046931;28;20119;-70
2024/01/26 10:20:15;;;;;;;10.25;1.48;;;8.20;99.90;;;;;;5045521;28;20033;-69
2024/01/26 10:22:44;;;;;;;12.70;1.65;;;8.50;99.90;;;;;;5044567;28;20053;-69
2024/01/26 10:25:10;;;;;;;16.07;2.37;;;8.40;99.90;;;;;;5047023;28;20112;-69
2024/01/26 10:27:36;;;;;;;9.43;1.58;;;8.10;99.90;;;;;;5041879;28;20355;-69
2024/01/26 10:30:03;;;;;;;13.82;2.00;;;8.20;99.90;;;;;;5045375;28;20110;-71
2024/01/26 10:32:29;;;;;;;15.68;2.90;;;8.10;99.90;;;;;;5049383;28;20401;-70
2024/01/26 10:35:00;;;;;;;16.45;2.22;;;8.00;99.90;;;;;;5046676;28;20049;-71
2024/01/26 10:37:29;;;;;;;14.77;2.70;;;8.10;99.90;;;;;;5032921;28;20045;-70
2024/01/26 10:39:56;;;;;;;13.98;2.28;;;8.10;99.90;;;;;;5049387;28;20037;-71
2024/01/26 10:42:23;;;;;;;12.45;2.00;;;8.10;99.90;;;;;;5032096;28;20059;-72
2024/01/26 10:44:50;;;;;;;14.77;2.28;;;8.10;99.90;;;;;;5046366;28;20156;-68
2024/01/26 10:47:21;;;;;;;15.48;2.28;;;8.00;99.90;;;;;;5047393;28;20049;-73
2024/01/26 10:49:50;;;;;;;34.50;4.32;;;8.00;99.90;;;;;;5045406;28;20041;-67
2024/01/26 10:52:22;;;;;;;16.00;2.50;;;7.60;99.90;;;;;;5030909;28;20049;-68
2024/01/26 10:54:51;;;;;;;17.80;2.97;;;7.80;99.90;;;;;;5042680;28;20089;-71
2024/01/26 10:57:21;;;;;;;19.55;2.95;;;7.50;99.90;;;;;;5045265;28;20044;-68
2024/01/26 10:59:47;;;;;;;11.65;2.65;;;7.70;99.90;;;;;;5047064;28;20037;-71
2024/01/26 11:02:31;;;;;;;17.02;2.63;;;7.60;99.90;;;;;;5047773;28;20033;-70
2024/01/26 11:05:02;;;;;;;14.23;2.60;;;7.40;99.90;;;;;;5026865;28;20044;-69
2024/01/26 11:07:31;;;;;;;16.58;2.60;;;7.60;99.90;;;;;;5049004;28;20362;-69
2024/01/26 11:10:04;;;;;;;19.10;2.45;;;7.50;99.90;;;;;;5036259;28;20043;-71
2024/01/26 11:12:33;;;;;;;20.95;3.22;;;7.50;99.90;;;;;;5030566;28;20045;-69
2024/01/26 11:15:09;;;;;;;13.10;2.50;;;7.40;99.90;;;;;;5033942;28;20041;-69
2024/01/26 11:17:52;;;;;;;18.23;2.83;;;7.40;99.90;;;;;;5032722;28;20044;-69
2024/01/26 11:20:30;;;;;;;17.20;2.63;;;7.30;99.90;;;;;;5043041;28;20051;-70
2024/01/26 11:23:04;;;;;;;15.95;2.10;;;7.50;99.90;;;;;;5042510;28;20072;-69
2024/01/26 11:25:38;;;;;;;12.70;2.45;;;7.40;99.90;;;;;;5016145;28;20091;-69
2024/01/26 11:28:05;;;;;;;9.52;2.03;;;7.20;99.90;;;;;;5039529;28;20040;-71
2024/01/26 11:30:31;;;;;;;24.05;3.03;;;7.30;99.90;;;;;;5035482;28;20069;-69
2024/01/26 11:32:58;;;;;;;16.98;2.53;;;7.20;99.90;;;;;;5044854;28;20401;-68
2024/01/26 11:35:23;;;;;;;14.10;2.60;;;7.20;99.90;;;;;;5051058;28;20060;-70
2024/01/26 11:37:54;;;;;;;17.95;2.67;;;7.20;99.90;;;;;;5047711;28;20602;-70
2024/01/26 11:40:20;;;;;;;13.25;2.20;;;7.30;99.90;;;;;;5034510;28;20413;-71
2024/01/26 11:42:49;;;;;;;16.75;3.28;;;7.40;99.90;;;;;;5050528;28;20036;-71
2024/01/26 11:45:46;;;;;;;13.95;2.20;;;7.30;99.90;;;;;;5032513;28;20049;-68
2024/01/26 11:48:13;;;;;;;20.58;3.22;;;7.30;99.90;;;;;;5032773;28;20069;-65
2024/01/26 11:50:43;;;;;;;15.70;2.92;;;7.30;99.90;;;;;;5035784;28;20038;-70
2024/01/26 11:53:09;;;;;;;;;;;7.10;99.90;;;;;;5053366;28;20045;-69
2024/01/26 11:55:38;;;;;;;11.48;2.20;;;7.10;99.90;;;;;;5041752;28;19935;-66
2024/01/26 11:58:05;;;;;;;18.45;2.40;;;7.00;99.90;;;;;;5050157;28;20117;-68
2024/01/26 12:00:31;;;;;;;11.98;1.95;;;7.10;99.90;;;;;;5044699;28;20102;-66
2024/01/26 12:02:57;;;;;;;15.23;3.33;;;7.10;99.90;;;;;;5032455;28;20075;-64
2024/01/26 12:05:23;;;;;;;12.75;2.00;;;7.10;99.90;;;;;;5035558;28;20049;-69
2024/01/26 12:07:49;;;;;;;15.13;2.72;;;7.10;99.90;;;;;;5032597;28;20390;-67
2024/01/26 12:10:16;;;;;;;12.10;2.17;;;7.00;99.90;;;;;;5034444;28;20045;-66
2024/01/26 12:12:43;;;;;;;14.77;2.15;;;7.10;99.90;;;;;;5047367;28;20049;-69
2024/01/26 12:15:10;;;;;;;9.20;1.70;;;7.10;99.90;;;;;;5031921;28;20099;-67
2024/01/26 12:17:36;;;;;;;9.82;1.50;;;7.00;99.90;;;;;;5034278;28;20498;-68
2024/01/26 12:20:05;;;;;;;9.43;2.00;;;7.00;99.90;;;;;;5030205;28;20053;-69
2024/01/26 12:22:32;;;;;;;12.63;1.83;;;6.90;99.90;;;;;;5038350;28;20094;-67
2024/01/26 12:25:02;;;;;;;10.80;1.90;;;6.90;99.90;;;;;;5029728;28;20168;-67
2024/01/26 12:27:28;;;;;;;7.70;2.03;;;6.90;99.90;;;;;;5030620;28;20077;-69
2024/01/26 12:29:53;;;;;;;14.38;1.75;;;6.90;99.90;;;;;;5013227;28;20089;-66
2024/01/26 12:32:19;;;;;;;7.80;1.65;;;6.90;99.90;;;;;;5039172;28;20048;-66
2024/01/26 12:34:45;;;;;;;20.20;2.90;;;6.90;99.90;;;;;;5044367;28;20481;-67
2024/01/26 12:37:11;;;;;;;17.67;2.53;;;6.90;99.90;;;;;;5040185;28;20069;-67